sensor_id;sensor_type;location;lat;lon;timestamp;pressure;altitude;pressure_sealevel;temperature;humidity
26376;BME280;30544;42.196;24.336;2022-09-09T00:02:01;99347.59;;;18.14;79.17
26376;BME280;30544;42.196;24.336;2022-09-09T00:04:30;99353.28;;;18.04;79.29
26376;BME280;30544;42.196;24.336;2022-09-09T00:07:03;99360.63;;;17.95;79.82
26376;BME280;30544;42.196;24.336;2022-09-09T00:09:38;99346.66;;;17.90;79.50
26376;BME280;30544;42.196;24.336;2022-09-09T00:12:11;99351.72;;;17.88;79.15
26376;BME280;30544;42.196;24.336;2022-09-09T00:14:47;99348.31;;;17.47;81.34
26376;BME280;30544;42.196;24.336;2022-09-09T00:17:24;99351.16;;;17.41;81.46
26376;BME280;30544;42.196;24.336;2022-09-09T00:20:00;99330.50;;;17.32;81.87
26376;BME280;30544;42.196;24.336;2022-09-09T00:22:30;99335.47;;;17.40;81.74
26376;BME280;30544;42.196;24.336;2022-09-09T00:25:02;99339.69;;;17.38;81.71
26376;BME280;30544;42.196;24.336;2022-09-09T00:27:40;99341.22;;;17.64;80.84
26376;BME280;30544;42.196;24.336;2022-09-09T00:30:15;99338.53;;;17.49;81.38
26376;BME280;30544;42.196;24.336;2022-09-09T00:32:45;99337.31;;;17.60;81.34
26376;BME280;30544;42.196;24.336;2022-09-09T00:35:17;99344.38;;;17.53;81.48
26376;BME280;30544;42.196;24.336;2022-09-09T00:37:46;99345.06;;;17.79;80.21
26376;BME280;30544;42.196;24.336;2022-09-09T00:40:22;99345.03;;;17.84;79.65
26376;BME280;30544;42.196;24.336;2022-09-09T00:43:04;99356.22;;;17.89;79.85
26376;BME280;30544;42.196;24.336;2022-09-09T00:45:55;99349.94;;;17.97;79.50
26376;BME280;30544;42.196;24.336;2022-09-09T00:48:31;99359.78;;;17.94;79.81
26376;BME280;30544;42.196;24.336;2022-09-09T00:51:08;99351.06;;;18.01;79.46
26376;BME280;30544;42.196;24.336;2022-09-09T00:53:59;99352.75;;;17.97;79.55
26376;BME280;30544;42.196;24.336;2022-09-09T00:56:36;99348.25;;;18.01;78.81
26376;BME280;30544;42.196;24.336;2022-09-09T00:59:22;99353.47;;;17.79;79.68
26376;BME280;30544;42.196;24.336;2022-09-09T01:01:52;99343.44;;;17.67;80.89
26376;BME280;30544;42.196;24.336;2022-09-09T01:04:25;99346.81;;;17.69;80.12
26376;BME280;30544;42.196;24.336;2022-09-09T01:07:03;99344.03;;;17.64;79.75
26376;BME280;30544;42.196;24.336;2022-09-09T01:09:44;99345.81;;;17.50;80.47
26376;BME280;30544;42.196;24.336;2022-09-09T01:12:24;99345.72;;;17.60;80.19
26376;BME280;30544;42.196;24.336;2022-09-09T01:15:00;99349.34;;;17.71;80.23
26376;BME280;30544;42.196;24.336;2022-09-09T01:17:33;99350.16;;;17.71;80.08
26376;BME280;30544;42.196;24.336;2022-09-09T01:20:05;99352.13;;;17.71;80.47
26376;BME280;30544;42.196;24.336;2022-09-09T01:22:40;99344.34;;;17.58;80.45
26376;BME280;30544;42.196;24.336;2022-09-09T01:26:03;99348.59;;;17.50;81.22
26376;BME280;30544;42.196;24.336;2022-09-09T01:28:32;99345.81;;;17.50;80.88
26376;BME280;30544;42.196;24.336;2022-09-09T01:31:03;99348.84;;;17.54;81.10
26376;BME280;30544;42.196;24.336;2022-09-09T01:33:30;99352.25;;;17.51;81.46
26376;BME280;30544;42.196;24.336;2022-09-09T01:36:00;99338.25;;;17.45;81.57
26376;BME280;30544;42.196;24.336;2022-09-09T01:38:31;99330.94;;;17.50;81.33
26376;BME280;30544;42.196;24.336;2022-09-09T01:41:01;99330.59;;;17.56;81.26
26376;BME280;30544;42.196;24.336;2022-09-09T01:43:28;99332.03;;;17.54;81.07
26376;BME280;30544;42.196;24.336;2022-09-09T01:45:59;99330.84;;;17.60;80.49
26376;BME280;30544;42.196;24.336;2022-09-09T01:48:26;99342.22;;;17.39;80.88
26376;BME280;30544;42.196;24.336;2022-09-09T01:50:53;99339.69;;;17.38;81.96
26376;BME280;30544;42.196;24.336;2022-09-09T01:53:21;99336.09;;;17.32;81.52
26376;BME280;30544;42.196;24.336;2022-09-09T01:55:55;99339.06;;;17.51;81.13
26376;BME280;30544;42.196;24.336;2022-09-09T01:58:32;99325.97;;;17.36;82.32
26376;BME280;30544;42.196;24.336;2022-09-09T02:01:06;99333.47;;;17.46;81.92
26376;BME280;30544;42.196;24.336;2022-09-09T02:03:36;99341.16;;;17.25;82.24
26376;BME280;30544;42.196;24.336;2022-09-09T02:06:14;99321.78;;;17.34;82.94
26376;BME280;30544;42.196;24.336;2022-09-09T02:08:47;99332.16;;;17.33;82.73
26376;BME280;30544;42.196;24.336;2022-09-09T02:11:17;99331.72;;;17.16;83.33
26376;BME280;30544;42.196;24.336;2022-09-09T02:13:47;99338.19;;;17.06;83.86
26376;BME280;30544;42.196;24.336;2022-09-09T02:16:18;99329.75;;;17.17;83.19
26376;BME280;30544;42.196;24.336;2022-09-09T02:18:52;99338.84;;;16.83;84.76
26376;BME280;30544;42.196;24.336;2022-09-09T02:21:21;99349.47;;;16.86;85.15
26376;BME280;30544;42.196;24.336;2022-09-09T02:23:50;99352.31;;;16.66;86.50
26376;BME280;30544;42.196;24.336;2022-09-09T02:26:19;99352.31;;;16.81;85.23
26376;BME280;30544;42.196;24.336;2022-09-09T02:28:50;99355.13;;;16.61;86.08
26376;BME280;30544;42.196;24.336;2022-09-09T02:31:19;99353.44;;;16.65;85.37
26376;BME280;30544;42.196;24.336;2022-09-09T02:33:52;99353.47;;;16.44;85.81
26376;BME280;30544;42.196;24.336;2022-09-09T02:36:22;99344.00;;;16.30;86.85
26376;BME280;30544;42.196;24.336;2022-09-09T02:38:50;99342.84;;;16.51;85.73
26376;BME280;30544;42.196;24.336;2022-09-09T02:41:20;99339.25;;;16.31;85.94
26376;BME280;30544;42.196;24.336;2022-09-09T02:43:51;99342.06;;;16.05;87.85
26376;BME280;30544;42.196;24.336;2022-09-09T02:46:32;99339.84;;;16.02;87.13
26376;BME280;30544;42.196;24.336;2022-09-09T02:49:08;99344.00;;;16.25;86.83
26376;BME280;30544;42.196;24.336;2022-09-09T02:51:40;99345.69;;;16.11;86.19
26376;BME280;30544;42.196;24.336;2022-09-09T02:54:18;99352.69;;;16.03;86.89
26376;BME280;30544;42.196;24.336;2022-09-09T02:56:51;99355.22;;;16.05;86.83
26376;BME280;30544;42.196;24.336;2022-09-09T02:59:21;99360.81;;;16.15;86.17
26376;BME280;30544;42.196;24.336;2022-09-09T03:01:49;99359.13;;;16.09;86.64
26376;BME280;30544;42.196;24.336;2022-09-09T03:04:16;99348.19;;;16.28;86.15
26376;BME280;30544;42.196;24.336;2022-09-09T03:06:42;99355.22;;;16.30;85.80
26376;BME280;30544;42.196;24.336;2022-09-09T03:09:09;99367.50;;;16.24;85.83
26376;BME280;30544;42.196;24.336;2022-09-09T03:11:36;99366.13;;;16.21;84.96
26376;BME280;30544;42.196;24.336;2022-09-09T03:14:03;99363.59;;;16.05;85.83
26376;BME280;30544;42.196;24.336;2022-09-09T03:16:32;99365.56;;;16.09;85.93
26376;BME280;30544;42.196;24.336;2022-09-09T03:18:59;99369.75;;;15.86;86.72
26376;BME280;30544;42.196;24.336;2022-09-09T03:21:26;99368.63;;;15.77;87.18
26376;BME280;30544;42.196;24.336;2022-09-09T03:23:53;99363.59;;;16.05;86.00
26376;BME280;30544;42.196;24.336;2022-09-09T03:26:20;99363.03;;;15.92;86.91
26376;BME280;30544;42.196;24.336;2022-09-09T03:28:46;99362.78;;;16.14;85.75
26376;BME280;30544;42.196;24.336;2022-09-09T03:31:17;99366.94;;;16.22;85.21
26376;BME280;30544;42.196;24.336;2022-09-09T03:33:46;99362.78;;;16.14;84.93
26376;BME280;30544;42.196;24.336;2022-09-09T03:36:13;99364.13;;;16.27;84.87
26376;BME280;30544;42.196;24.336;2022-09-09T03:38:40;99372.81;;;16.36;84.50
26376;BME280;30544;42.196;24.336;2022-09-09T03:41:07;99377.00;;;16.48;84.31
26376;BME280;30544;42.196;24.336;2022-09-09T03:43:34;99357.41;;;16.43;84.17
26376;BME280;30544;42.196;24.336;2022-09-09T03:46:01;99370.28;;;16.44;84.29
26376;BME280;30544;42.196;24.336;2022-09-09T03:48:28;99364.66;;;16.54;84.05
26376;BME280;30544;42.196;24.336;2022-09-09T03:50:56;99366.94;;;16.47;85.57
26376;BME280;30544;42.196;24.336;2022-09-09T03:53:27;99372.78;;;16.56;85.29
26376;BME280;30544;42.196;24.336;2022-09-09T03:55:55;99368.59;;;16.48;87.29
26376;BME280;30544;42.196;24.336;2022-09-09T03:58:25;99376.97;;;16.59;86.73
26376;BME280;30544;42.196;24.336;2022-09-09T04:00:54;99374.50;;;16.47;88.00
26376;BME280;30544;42.196;24.336;2022-09-09T04:03:21;99383.16;;;16.45;87.56
26376;BME280;30544;42.196;24.336;2022-09-09T04:05:50;99378.69;;;16.49;87.83
26376;BME280;30544;42.196;24.336;2022-09-09T04:08:18;99374.78;;;16.30;87.81
26376;BME280;30544;42.196;24.336;2022-09-09T04:10:45;99380.06;;;16.42;87.55
26376;BME280;30544;42.196;24.336;2022-09-09T04:13:13;99381.47;;;16.44;86.87
26376;BME280;30544;42.196;24.336;2022-09-09T04:15:42;99375.88;;;16.54;86.96
26376;BME280;30544;42.196;24.336;2022-09-09T04:18:09;99369.72;;;16.42;87.15
26376;BME280;30544;42.196;24.336;2022-09-09T04:20:37;99374.75;;;16.50;87.68
26376;BME280;30544;42.196;24.336;2022-09-09T04:23:04;99370.84;;;16.51;88.13
26376;BME280;30544;42.196;24.336;2022-09-09T04:25:32;99371.94;;;16.55;87.14
26376;BME280;30544;42.196;24.336;2022-09-09T04:27:59;99373.63;;;16.67;87.11
26376;BME280;30544;42.196;24.336;2022-09-09T04:30:26;99357.69;;;16.52;86.99
26376;BME280;30544;42.196;24.336;2022-09-09T04:32:53;99376.47;;;16.31;87.10
26376;BME280;30544;42.196;24.336;2022-09-09T04:35:20;99378.13;;;16.52;85.51
26376;BME280;30544;42.196;24.336;2022-09-09T04:37:47;99394.06;;;16.42;85.09
26376;BME280;30544;42.196;24.336;2022-09-09T04:40:14;99384.59;;;16.33;86.07
26376;BME280;30544;42.196;24.336;2022-09-09T04:42:42;99379.28;;;16.31;84.58
26376;BME280;30544;42.196;24.336;2022-09-09T04:45:10;99380.34;;;16.50;84.11
26376;BME280;30544;42.196;24.336;2022-09-09T04:47:39;99381.16;;;16.61;84.56
26376;BME280;30544;42.196;24.336;2022-09-09T04:50:07;99383.34;;;16.90;83.50
26376;BME280;30544;42.196;24.336;2022-09-09T04:52:34;99393.13;;;17.02;83.12
26376;BME280;30544;42.196;24.336;2022-09-09T04:55:00;99396.19;;;17.06;82.58
26376;BME280;30544;42.196;24.336;2022-09-09T04:57:27;99390.84;;;17.14;82.67
26376;BME280;30544;42.196;24.336;2022-09-09T04:59:58;99395.84;;;17.23;82.39
26376;BME280;30544;42.196;24.336;2022-09-09T05:02:25;99399.13;;;17.40;81.97
26376;BME280;30544;42.196;24.336;2022-09-09T05:04:52;99405.00;;;17.38;81.32
26376;BME280;30544;42.196;24.336;2022-09-09T05:07:19;99408.56;;;17.54;81.81
26376;BME280;30544;42.196;24.336;2022-09-09T05:09:46;99401.31;;;17.48;81.14
26376;BME280;30544;42.196;24.336;2022-09-09T05:12:14;99399.53;;;17.67;80.72
26376;BME280;30544;42.196;24.336;2022-09-09T05:14:41;99396.72;;;17.72;79.96
26376;BME280;30544;42.196;24.336;2022-09-09T05:17:10;99401.50;;;17.67;79.88
26376;BME280;30544;42.196;24.336;2022-09-09T05:19:37;99395.53;;;17.79;79.24
26376;BME280;30544;42.196;24.336;2022-09-09T05:22:03;99406.47;;;17.80;78.47
26376;BME280;30544;42.196;24.336;2022-09-09T05:24:30;99402.63;;;17.66;78.28
26376;BME280;30544;42.196;24.336;2022-09-09T05:26:58;99413.56;;;17.67;78.21
26376;BME280;30544;42.196;24.336;2022-09-09T05:29:27;99409.38;;;17.60;77.96
26376;BME280;30544;42.196;24.336;2022-09-09T05:31:54;99406.03;;;17.58;78.54
26376;BME280;30544;42.196;24.336;2022-09-09T05:34:22;99395.94;;;17.57;77.79
26376;BME280;30544;42.196;24.336;2022-09-09T05:36:49;99391.97;;;17.68;78.20
26376;BME280;30544;42.196;24.336;2022-09-09T05:39:16;99383.81;;;17.71;78.99
26376;BME280;30544;42.196;24.336;2022-09-09T05:41:43;99377.44;;;18.00;77.67
26376;BME280;30544;42.196;24.336;2022-09-09T05:44:10;99374.88;;;18.38;75.99
26376;BME280;30544;42.196;24.336;2022-09-09T05:46:36;99378.84;;;18.60;74.79
26376;BME280;30544;42.196;24.336;2022-09-09T05:49:04;99389.41;;;18.74;74.35
26376;BME280;30544;42.196;24.336;2022-09-09T05:51:32;99387.81;;;18.91;73.93
26376;BME280;30544;42.196;24.336;2022-09-09T05:54:00;99375.09;;;18.99;72.03
26376;BME280;30544;42.196;24.336;2022-09-09T05:56:28;99374.94;;;19.09;71.66
26376;BME280;30544;42.196;24.336;2022-09-09T05:58:55;99374.94;;;19.33;69.79
26376;BME280;30544;42.196;24.336;2022-09-09T06:01:25;99378.34;;;19.54;70.96
26376;BME280;30544;42.196;24.336;2022-09-09T06:03:53;99378.19;;;19.83;68.98
26376;BME280;30544;42.196;24.336;2022-09-09T06:06:21;99375.81;;;19.71;69.17
26376;BME280;30544;42.196;24.336;2022-09-09T06:08:51;99374.06;;;19.94;68.33
26376;BME280;30544;42.196;24.336;2022-09-09T06:11:20;99373.31;;;19.89;67.26
26376;BME280;30544;42.196;24.336;2022-09-09T06:13:47;99364.84;;;20.07;66.03
26376;BME280;30544;42.196;24.336;2022-09-09T06:16:17;99363.84;;;19.98;65.94
26376;BME280;30544;42.196;24.336;2022-09-09T06:18:44;99366.47;;;20.27;65.26
26376;BME280;30544;42.196;24.336;2022-09-09T06:21:15;99359.72;;;20.75;64.42
26376;BME280;30544;42.196;24.336;2022-09-09T06:23:42;99368.19;;;20.88;65.72
26376;BME280;30544;42.196;24.336;2022-09-09T06:26:12;99375.28;;;20.99;64.00
26376;BME280;30544;42.196;24.336;2022-09-09T06:28:39;99368.53;;;21.00;64.79
26376;BME280;30544;42.196;24.336;2022-09-09T06:31:09;99359.66;;;20.47;63.77
26376;BME280;30544;42.196;24.336;2022-09-09T06:33:38;99375.28;;;20.39;64.38
26376;BME280;30544;42.196;24.336;2022-09-09T06:36:07;99375.50;;;20.89;62.21
26376;BME280;30544;42.196;24.336;2022-09-09T06:38:37;99370.38;;;20.78;62.13
26376;BME280;30544;42.196;24.336;2022-09-09T06:41:04;99363.72;;;21.01;62.65
26376;BME280;30544;42.196;24.336;2022-09-09T06:43:32;99362.03;;;21.00;62.38
26376;BME280;30544;42.196;24.336;2022-09-09T06:46:04;99369.78;;;21.85;59.88
26376;BME280;30544;42.196;24.336;2022-09-09T06:48:31;99367.72;;;22.00;60.10
26376;BME280;30544;42.196;24.336;2022-09-09T06:51:02;99369.25;;;21.34;62.06
26376;BME280;30544;42.196;24.336;2022-09-09T06:53:30;99364.03;;;21.77;59.86
26376;BME280;30544;42.196;24.336;2022-09-09T06:55:59;99375.81;;;21.56;59.44
26376;BME280;30544;42.196;24.336;2022-09-09T06:58:26;99369.66;;;21.90;58.56
26376;BME280;30544;42.196;24.336;2022-09-09T07:01:01;99372.94;;;21.70;59.56
26376;BME280;30544;42.196;24.336;2022-09-09T07:03:28;99367.34;;;21.92;58.09
26376;BME280;30544;42.196;24.336;2022-09-09T07:05:55;99369.47;;;22.32;56.98
26376;BME280;30544;42.196;24.336;2022-09-09T07:08:22;99377.13;;;21.73;57.44
26376;BME280;30544;42.196;24.336;2022-09-09T07:10:50;99365.66;;;21.91;56.33
26376;BME280;30544;42.196;24.336;2022-09-09T07:13:19;99365.38;;;22.15;56.49
26376;BME280;30544;42.196;24.336;2022-09-09T07:15:47;99372.41;;;22.49;56.80
26376;BME280;30544;42.196;24.336;2022-09-09T07:18:15;99376.28;;;22.31;56.05
26376;BME280;30544;42.196;24.336;2022-09-09T07:20:41;99367.19;;;22.87;54.55
26376;BME280;30544;42.196;24.336;2022-09-09T07:23:08;99373.94;;;22.24;56.34
26376;BME280;30544;42.196;24.336;2022-09-09T07:25:35;99367.25;;;22.20;56.66
26376;BME280;30544;42.196;24.336;2022-09-09T07:28:02;99374.84;;;22.87;55.52
26376;BME280;30544;42.196;24.336;2022-09-09T07:30:29;99366.97;;;23.15;55.33
26376;BME280;30544;42.196;24.336;2022-09-09T07:32:56;99364.72;;;23.51;54.14
26376;BME280;30544;42.196;24.336;2022-09-09T07:35:25;99358.63;;;23.84;53.81
26376;BME280;30544;42.196;24.336;2022-09-09T07:37:53;99351.97;;;23.97;52.91
26376;BME280;30544;42.196;24.336;2022-09-09T07:40:20;99341.97;;;24.34;52.72
26376;BME280;30544;42.196;24.336;2022-09-09T07:42:47;99354.81;;;23.97;51.71
26376;BME280;30544;42.196;24.336;2022-09-09T07:45:14;99356.66;;;24.10;51.67
26376;BME280;30544;42.196;24.336;2022-09-09T07:47:41;99360.16;;;23.73;52.30
26376;BME280;30544;42.196;24.336;2022-09-09T07:50:08;99361.16;;;23.94;52.29
26376;BME280;30544;42.196;24.336;2022-09-09T07:52:36;99355.97;;;23.96;52.26
26376;BME280;30544;42.196;24.336;2022-09-09T07:55:04;99350.97;;;23.58;53.54
26376;BME280;30544;42.196;24.336;2022-09-09T07:57:31;99338.31;;;24.25;50.31
26376;BME280;30544;42.196;24.336;2022-09-09T07:59:58;99342.41;;;23.50;50.75
26376;BME280;30544;42.196;24.336;2022-09-09T08:02:25;99352.66;;;23.77;51.11
26376;BME280;30544;42.196;24.336;2022-09-09T08:04:54;99352.47;;;23.82;51.10
26376;BME280;30544;42.196;24.336;2022-09-09T08:07:21;99345.66;;;24.35;50.85
26376;BME280;30544;42.196;24.336;2022-09-09T08:09:50;99333.22;;;24.65;49.44
26376;BME280;30544;42.196;24.336;2022-09-09T08:12:16;99337.38;;;24.76;49.28
26376;BME280;30544;42.196;24.336;2022-09-09T08:14:43;99341.06;;;25.44;48.76
26376;BME280;30544;42.196;24.336;2022-09-09T08:17:10;99338.16;;;24.85;48.33
26376;BME280;30544;42.196;24.336;2022-09-09T08:19:37;99333.16;;;24.82;49.96
26376;BME280;30544;42.196;24.336;2022-09-09T08:22:04;99333.63;;;25.61;49.02
26376;BME280;30544;42.196;24.336;2022-09-09T08:24:30;99335.03;;;25.96;48.08
26376;BME280;30544;42.196;24.336;2022-09-09T08:26:58;99338.19;;;25.24;47.87
26376;BME280;30544;42.196;24.336;2022-09-09T08:29:25;99330.09;;;25.64;49.29
26376;BME280;30544;42.196;24.336;2022-09-09T08:31:55;99330.47;;;24.95;48.98
26376;BME280;30544;42.196;24.336;2022-09-09T08:34:22;99327.47;;;25.29;49.17
26376;BME280;30544;42.196;24.336;2022-09-09T08:36:51;99329.34;;;25.25;48.39
26376;BME280;30544;42.196;24.336;2022-09-09T08:39:19;99331.59;;;25.70;48.72
26376;BME280;30544;42.196;24.336;2022-09-09T08:42:04;99322.88;;;25.45;47.29
26376;BME280;30544;42.196;24.336;2022-09-09T08:44:45;99319.91;;;25.63;47.50
26376;BME280;30544;42.196;24.336;2022-09-09T08:47:20;99307.44;;;26.18;47.25
26376;BME280;30544;42.196;24.336;2022-09-09T08:50:05;99316.13;;;25.79;47.74
26376;BME280;30544;42.196;24.336;2022-09-09T08:52:41;99313.19;;;25.67;47.79
26376;BME280;30544;42.196;24.336;2022-09-09T08:55:22;99312.56;;;25.41;48.42
26376;BME280;30544;42.196;24.336;2022-09-09T08:57:53;99305.75;;;25.33;49.61
26376;BME280;30544;42.196;24.336;2022-09-09T09:00:21;99303.22;;;25.40;48.57
26376;BME280;30544;42.196;24.336;2022-09-09T09:02:58;99312.13;;;25.81;47.06
26376;BME280;30544;42.196;24.336;2022-09-09T09:05:35;99311.59;;;25.07;47.67
26376;BME280;30544;42.196;24.336;2022-09-09T09:08:10;99306.34;;;26.10;48.26
26376;BME280;30544;42.196;24.336;2022-09-09T09:10:45;99306.47;;;26.14;46.57
26376;BME280;30544;42.196;24.336;2022-09-09T09:13:17;99301.63;;;26.47;47.85
26376;BME280;30544;42.196;24.336;2022-09-09T09:15:50;99299.59;;;26.93;46.47
26376;BME280;30544;42.196;24.336;2022-09-09T09:18:19;99302.28;;;26.65;46.75
26376;BME280;30544;42.196;24.336;2022-09-09T09:20:50;99300.88;;;26.83;47.88
26376;BME280;30544;42.196;24.336;2022-09-09T09:23:23;99293.31;;;27.36;45.10
26376;BME280;30544;42.196;24.336;2022-09-09T09:25:52;99292.25;;;26.92;45.30
26376;BME280;30544;42.196;24.336;2022-09-09T09:28:26;99285.47;;;26.84;46.20
26376;BME280;30544;42.196;24.336;2022-09-09T09:30:58;99280.00;;;26.22;46.58
26376;BME280;30544;42.196;24.336;2022-09-09T09:33:31;99266.13;;;25.87;47.52
26376;BME280;30544;42.196;24.336;2022-09-09T09:36:00;99260.47;;;26.78;47.19
26376;BME280;30544;42.196;24.336;2022-09-09T09:38:28;99260.28;;;27.07;46.69
26376;BME280;30544;42.196;24.336;2022-09-09T09:40:56;99248.34;;;26.68;44.86
26376;BME280;30544;42.196;24.336;2022-09-09T09:43:28;99246.94;;;26.87;47.40
26376;BME280;30544;42.196;24.336;2022-09-09T09:45:55;99244.38;;;26.36;46.08
26376;BME280;30544;42.196;24.336;2022-09-09T09:48:24;99256.41;;;26.66;47.98
26376;BME280;30544;42.196;24.336;2022-09-09T09:50:53;99250.38;;;27.41;46.54
26376;BME280;30544;42.196;24.336;2022-09-09T09:53:25;99257.69;;;27.67;46.26
26376;BME280;30544;42.196;24.336;2022-09-09T09:55:56;99250.63;;;26.99;45.84
26376;BME280;30544;42.196;24.336;2022-09-09T09:58:27;99257.00;;;26.60;45.12
26376;BME280;30544;42.196;24.336;2022-09-09T10:00:57;99253.22;;;26.80;45.49
26376;BME280;30544;42.196;24.336;2022-09-09T10:03:27;99256.31;;;26.99;43.96
26376;BME280;30544;42.196;24.336;2022-09-09T10:05:54;99256.53;;;26.58;45.23
26376;BME280;30544;42.196;24.336;2022-09-09T10:08:22;99253.84;;;27.22;43.95
26376;BME280;30544;42.196;24.336;2022-09-09T10:11:02;99238.41;;;26.99;44.90
26376;BME280;30544;42.196;24.336;2022-09-09T10:13:40;99242.47;;;27.75;43.90
26376;BME280;30544;42.196;24.336;2022-09-09T10:16:19;99238.91;;;27.78;43.77
26376;BME280;30544;42.196;24.336;2022-09-09T10:18:58;99242.34;;;27.71;43.88
26376;BME280;30544;42.196;24.336;2022-09-09T10:21:51;99230.38;;;27.01;44.82
26376;BME280;30544;42.196;24.336;2022-09-09T10:27:20;99227.25;;;27.83;44.37
26376;BME280;30544;42.196;24.336;2022-09-09T10:30:01;99231.38;;;27.45;44.37
26376;BME280;30544;42.196;24.336;2022-09-09T10:32:38;99230.38;;;28.06;44.83
26376;BME280;30544;42.196;24.336;2022-09-09T10:35:12;99235.56;;;28.32;43.51
26376;BME280;30544;42.196;24.336;2022-09-09T10:37:52;99237.84;;;27.70;43.91
26376;BME280;30544;42.196;24.336;2022-09-09T10:40:32;99231.44;;;27.73;43.40
26376;BME280;30544;42.196;24.336;2022-09-09T10:43:07;99223.72;;;27.74;44.29
26376;BME280;30544;42.196;24.336;2022-09-09T10:45:49;99222.53;;;28.46;43.63
26376;BME280;30544;42.196;24.336;2022-09-09T10:48:31;99211.28;;;28.38;43.09
26376;BME280;30544;42.196;24.336;2022-09-09T10:51:17;99212.34;;;28.17;42.65
26376;BME280;30544;42.196;24.336;2022-09-09T10:53:57;99205.22;;;27.27;44.40
26376;BME280;30544;42.196;24.336;2022-09-09T10:56:29;99198.47;;;27.72;43.22
26376;BME280;30544;42.196;24.336;2022-09-09T10:59:00;99200.38;;;28.40;43.01
26376;BME280;30544;42.196;24.336;2022-09-09T11:01:40;99201.00;;;28.33;43.48
26376;BME280;30544;42.196;24.336;2022-09-09T11:04:15;99198.25;;;28.68;43.24
26376;BME280;30544;42.196;24.336;2022-09-09T11:06:47;99198.06;;;29.09;40.96
26376;BME280;30544;42.196;24.336;2022-09-09T11:09:21;99201.56;;;28.86;41.88
26376;BME280;30544;42.196;24.336;2022-09-09T11:11:52;99203.16;;;27.40;44.33
26376;BME280;30544;42.196;24.336;2022-09-09T11:14:22;99200.56;;;28.19;42.91
26376;BME280;30544;42.196;24.336;2022-09-09T11:16:56;99205.88;;;28.49;41.66
26376;BME280;30544;42.196;24.336;2022-09-09T11:19:27;99204.75;;;27.94;43.38
26376;BME280;30544;42.196;24.336;2022-09-09T11:21:59;99197.78;;;28.66;41.98
26376;BME280;30544;42.196;24.336;2022-09-09T11:24:31;99195.69;;;28.95;41.34
26376;BME280;30544;42.196;24.336;2022-09-09T11:27:02;99191.41;;;29.40;40.90
26376;BME280;30544;42.196;24.336;2022-09-09T11:29:56;99192.28;;;28.89;41.25
26376;BME280;30544;42.196;24.336;2022-09-09T11:32:39;99181.00;;;29.12;40.38
26376;BME280;30544;42.196;24.336;2022-09-09T11:35:25;99180.94;;;29.28;40.36
26376;BME280;30544;42.196;24.336;2022-09-09T11:38:19;99171.53;;;29.62;40.66
26376;BME280;30544;42.196;24.336;2022-09-09T11:40:55;99164.31;;;29.69;39.44
26376;BME280;30544;42.196;24.336;2022-09-09T11:43:26;99165.47;;;30.26;40.54
26376;BME280;30544;42.196;24.336;2022-09-09T11:45:55;99164.88;;;29.04;42.09
26376;BME280;30544;42.196;24.336;2022-09-09T11:48:29;99150.03;;;29.49;41.46
26376;BME280;30544;42.196;24.336;2022-09-09T11:50:59;99161.84;;;29.13;41.18
26376;BME280;30544;42.196;24.336;2022-09-09T11:53:26;99154.63;;;29.19;40.73
26376;BME280;30544;42.196;24.336;2022-09-09T11:56:09;99153.31;;;28.81;41.84
26376;BME280;30544;42.196;24.336;2022-09-09T11:58:40;99157.97;;;29.05;41.87
26376;BME280;30544;42.196;24.336;2022-09-09T12:01:15;99159.31;;;29.27;40.80
26376;BME280;30544;42.196;24.336;2022-09-09T12:06:44;99145.50;;;29.87;39.70
26376;BME280;30544;42.196;24.336;2022-09-09T12:09:21;99145.53;;;29.48;40.55
26376;BME280;30544;42.196;24.336;2022-09-09T12:11:49;99139.41;;;29.69;41.08
26376;BME280;30544;42.196;24.336;2022-09-09T12:14:23;99138.50;;;29.26;41.24
26376;BME280;30544;42.196;24.336;2022-09-09T12:17:10;99146.66;;;30.24;39.29
26376;BME280;30544;42.196;24.336;2022-09-09T12:19:46;99141.41;;;30.53;39.16
26376;BME280;30544;42.196;24.336;2022-09-09T12:22:22;99140.22;;;30.31;40.09
26376;BME280;30544;42.196;24.336;2022-09-09T12:24:56;99140.41;;;29.77;40.63
26376;BME280;30544;42.196;24.336;2022-09-09T12:27:29;99131.31;;;30.36;39.41
26376;BME280;30544;42.196;24.336;2022-09-09T12:30:03;99140.31;;;29.92;39.97
26376;BME280;30544;42.196;24.336;2022-09-09T12:32:31;99122.69;;;30.10;40.59
26376;BME280;30544;42.196;24.336;2022-09-09T12:35:02;99127.28;;;29.95;39.68
26376;BME280;30544;42.196;24.336;2022-09-09T12:37:34;99115.94;;;30.21;39.85
26376;BME280;30544;42.196;24.336;2022-09-09T12:40:04;99121.66;;;30.67;39.21
26376;BME280;30544;42.196;24.336;2022-09-09T12:42:32;99119.84;;;30.10;39.48
26376;BME280;30544;42.196;24.336;2022-09-09T12:45:01;99119.31;;;30.04;39.34
26376;BME280;30544;42.196;24.336;2022-09-09T12:47:40;99114.53;;;30.35;39.28
26376;BME280;30544;42.196;24.336;2022-09-09T12:50:18;99116.41;;;30.23;40.47
26376;BME280;30544;42.196;24.336;2022-09-09T12:52:47;99113.44;;;29.97;41.03
26376;BME280;30544;42.196;24.336;2022-09-09T12:55:18;99097.34;;;29.89;40.54
26376;BME280;30544;42.196;24.336;2022-09-09T12:57:47;99104.09;;;30.00;40.93
26376;BME280;30544;42.196;24.336;2022-09-09T13:00:18;99103.28;;;30.22;40.25
26376;BME280;30544;42.196;24.336;2022-09-09T13:02:50;99099.75;;;30.06;40.27
26376;BME280;30544;42.196;24.336;2022-09-09T13:05:22;99102.44;;;29.76;41.34
26376;BME280;30544;42.196;24.336;2022-09-09T13:07:49;99085.63;;;29.94;40.61
26376;BME280;30544;42.196;24.336;2022-09-09T13:10:23;99087.00;;;29.81;40.86
26376;BME280;30544;42.196;24.336;2022-09-09T13:12:52;99082.59;;;30.06;40.89
26376;BME280;30544;42.196;24.336;2022-09-09T13:15:21;99078.75;;;29.99;40.83
26376;BME280;30544;42.196;24.336;2022-09-09T13:17:53;99073.81;;;30.18;41.08